createdAt,value
2016-06-02T00:00:03.548Z,15.41
2016-06-02T00:01:03.535Z,15.33
2016-06-02T00:02:03.382Z,15.33
2016-06-02T00:03:03.541Z,15.37
2016-06-02T00:04:03.543Z,15.35
2016-06-02T00:05:03.546Z,15.41
2016-06-02T00:06:03.548Z,15.33
2016-06-02T00:07:03.614Z,15.3
2016-06-02T00:08:03.554Z,15.35
2016-06-02T00:09:03.557Z,15.32
2016-06-02T00:10:03.966Z,15.25
2016-06-02T00:11:03.562Z,15.26
2016-06-02T00:12:03.548Z,15.26
2016-06-02T00:13:03.552Z,15.22
2016-06-02T00:14:03.554Z,15.26
2016-06-02T00:15:03.557Z,15.19
2016-06-02T00:16:03.575Z,15.18
2016-06-02T00:17:03.547Z,15.18
2016-06-02T00:18:03.565Z,15.18
2016-06-02T00:19:03.568Z,15.22
2016-06-02T00:20:03.570Z,15.25
2016-06-02T00:21:03.573Z,15.19
2016-06-02T00:22:03.561Z,15.17
2016-06-02T00:23:03.407Z,15.23
2016-06-02T00:24:03.410Z,15.14
2016-06-02T00:25:04.319Z,15.11
2016-06-02T00:26:03.555Z,15.15
2016-06-02T00:27:03.402Z,15.14
2016-06-02T00:28:03.561Z,15.08
2016-06-02T00:29:03.579Z,15.19
2016-06-02T00:30:03.567Z,15.19
2016-06-02T00:31:03.429Z,15.11
2016-06-02T00:32:03.571Z,15.1
2016-06-02T00:33:03.574Z,15.11
2016-06-02T00:34:03.577Z,15.17
2016-06-02T00:35:03.565Z,15.12
2016-06-02T00:36:03.582Z,15.11
2016-06-02T00:37:03.413Z,15.14
2016-06-02T00:38:03.573Z,15.11
2016-06-02T00:39:03.576Z,15.1
2016-06-02T00:40:03.624Z,15.08
2016-06-02T00:41:03.596Z,15.08
2016-06-02T00:42:03.583Z,15.12
2016-06-02T00:43:03.570Z,15.08
2016-06-02T00:44:03.589Z,15.12
2016-06-02T00:45:03.576Z,15.11
2016-06-02T00:46:03.594Z,15.11
2016-06-02T00:47:03.581Z,15.07
2016-06-02T00:48:03.600Z,15.14
2016-06-02T00:49:03.586Z,15.15
2016-06-02T00:50:03.573Z,15.12
2016-06-02T00:51:03.592Z,15.04
2016-06-02T00:52:03.595Z,15.07
2016-06-02T00:53:03.581Z,15.07
2016-06-02T00:54:03.584Z,15.05
2016-06-02T00:55:04.603Z,15.02
2016-06-02T00:56:03.589Z,14.99
2016-06-02T00:57:03.436Z,15.08
2016-06-02T00:58:03.594Z,15
2016-06-02T00:59:03.582Z,14.99
2016-06-02T01:00:03.600Z,15.07
2016-06-02T01:01:03.431Z,14.97
2016-06-02T01:02:03.590Z,14.99
2016-06-02T01:03:03.608Z,14.97
2016-06-02T01:04:03.596Z,14.93
2016-06-02T01:05:03.426Z,14.93
2016-06-02T01:06:03.585Z,14.82
2016-06-02T01:07:03.744Z,14.9
2016-06-02T01:08:03.449Z,14.85
2016-06-02T01:09:03.593Z,14.82
2016-06-02T01:10:03.627Z,14.92
2016-06-02T01:11:03.614Z,14.93
2016-06-02T01:12:03.601Z,14.81
2016-06-02T01:13:03.604Z,14.79
2016-06-02T01:14:03.607Z,14.82
2016-06-02T01:15:03.610Z,14.79
2016-06-02T01:16:03.628Z,14.78
2016-06-02T01:17:03.599Z,14.81
2016-06-02T01:18:03.602Z,14.85
2016-06-02T01:19:03.620Z,14.86
2016-06-02T01:20:03.623Z,14.85
2016-06-02T01:21:03.610Z,14.82
2016-06-02T01:22:03.612Z,14.82
2016-06-02T01:23:03.615Z,14.74
2016-06-02T01:24:03.603Z,14.82
2016-06-02T01:25:04.106Z,14.79
2016-06-02T01:26:03.608Z,14.81
2016-06-02T01:27:03.642Z,14.81
2016-06-02T01:28:03.629Z,14.79
2016-06-02T01:29:03.616Z,14.81
2016-06-02T01:30:03.619Z,14.81
2016-06-02T01:31:03.622Z,14.79
2016-06-02T01:32:03.624Z,14.79
2016-06-02T01:33:03.611Z,14.87
2016-06-02T01:34:03.630Z,14.81
2016-06-02T01:35:03.616Z,14.87
2016-06-02T01:36:03.635Z,14.79
2016-06-02T01:37:03.466Z,14.82
2016-06-02T01:38:03.624Z,14.79
2016-06-02T01:39:03.612Z,14.85
2016-06-02T01:40:03.583Z,14.82
2016-06-02T01:41:03.680Z,14.81
2016-06-02T01:42:03.635Z,14.73
2016-06-02T01:43:03.638Z,14.74
2016-06-02T01:44:03.626Z,14.85
2016-06-02T01:45:03.487Z,14.79
2016-06-02T01:46:03.506Z,14.71
2016-06-02T01:47:03.664Z,14.81
2016-06-02T01:48:03.636Z,14.77
2016-06-02T01:49:03.498Z,14.71
2016-06-02T01:50:03.625Z,14.71
2016-06-02T01:51:03.472Z,14.7
2016-06-02T01:52:03.631Z,14.73
2016-06-02T01:53:03.634Z,14.73
2016-06-02T01:54:03.636Z,14.78
2016-06-02T01:55:03.514Z,14.82
2016-06-02T01:56:03.641Z,14.67
2016-06-02T01:57:03.645Z,14.73
2016-06-02T01:58:03.646Z,14.66
2016-06-02T01:59:03.478Z,14.7
2016-06-02T02:00:03.636Z,14.79
2016-06-02T02:01:03.639Z,14.77
2016-06-02T02:02:03.485Z,14.7
2016-06-02T02:03:03.644Z,14.7
2016-06-02T02:04:03.491Z,14.67
2016-06-02T02:05:03.338Z,14.59
2016-06-02T02:06:03.480Z,14.59
2016-06-02T02:07:03.640Z,14.62
2016-06-02T02:08:03.642Z,14.58
2016-06-02T02:09:03.646Z,14.55
2016-06-02T02:10:03.649Z,14.52
2016-06-02T02:11:03.651Z,14.55
2016-06-02T02:12:03.513Z,14.62
2016-06-02T02:13:03.657Z,14.56
2016-06-02T02:14:03.659Z,14.55
2016-06-02T02:15:03.645Z,14.55
2016-06-02T02:16:03.664Z,14.51
2016-06-02T02:17:03.510Z,14.51
2016-06-02T02:18:03.498Z,14.45
2016-06-02T02:19:03.656Z,14.48
2016-06-02T02:20:03.675Z,14.49
2016-06-02T02:21:03.661Z,14.43
2016-06-02T02:22:03.509Z,14.48
2016-06-02T02:23:03.667Z,14.41
2016-06-02T02:24:03.654Z,14.43
2016-06-02T02:25:03.500Z,14.49
2016-06-02T02:26:03.504Z,14.45
2016-06-02T02:27:03.661Z,14.45
2016-06-02T02:28:03.664Z,14.48
2016-06-02T02:29:03.512Z,14.48
2016-06-02T02:30:03.514Z,14.44
2016-06-02T02:31:03.672Z,14.49
2016-06-02T02:32:03.660Z,14.43
2016-06-02T02:33:03.678Z,14.44
2016-06-02T02:34:03.666Z,14.48
2016-06-02T02:35:03.668Z,14.45
2016-06-02T02:36:03.671Z,14.49
2016-06-02T02:37:03.674Z,14.37
2016-06-02T02:38:03.521Z,14.49
2016-06-02T02:39:03.679Z,14.37
2016-06-02T02:40:03.353Z,14.33
2016-06-02T02:41:03.685Z,14.38
2016-06-02T02:42:03.671Z,14.34
2016-06-02T02:43:03.674Z,14.37
2016-06-02T02:44:03.676Z,14.31
2016-06-02T02:45:03.679Z,14.33
2016-06-02T02:46:03.682Z,14.33
2016-06-02T02:47:03.528Z,14.37
2016-06-02T02:48:03.673Z,14.31
2016-06-02T02:49:03.675Z,14.34
2016-06-02T02:50:03.677Z,14.38
2016-06-02T02:51:03.681Z,14.34
2016-06-02T02:52:03.683Z,14.34
2016-06-02T02:53:03.529Z,14.38
2016-06-02T02:54:03.688Z,14.38
2016-06-02T02:55:03.534Z,14.36
2016-06-02T02:56:03.678Z,14.4
2016-06-02T02:57:03.681Z,14.3
2016-06-02T02:58:03.683Z,14.28
2016-06-02T02:59:03.530Z,14.36
2016-06-02T03:00:03.689Z,14.37
2016-06-02T03:01:03.691Z,14.33
2016-06-02T03:02:03.710Z,14.38
2016-06-02T03:03:03.541Z,14.31
2016-06-02T03:04:03.684Z,14.4
2016-06-02T03:05:03.686Z,14.31
2016-06-02T03:06:03.548Z,14.38
2016-06-02T03:07:03.738Z,14.38
2016-06-02T03:08:03.694Z,14.38
2016-06-02T03:09:03.697Z,14.31
2016-06-02T03:10:03.544Z,14.41
2016-06-02T03:11:03.546Z,14.31
2016-06-02T03:12:03.690Z,14.37
2016-06-02T03:13:03.693Z,14.4
2016-06-02T03:14:03.539Z,14.33
2016-06-02T03:15:03.541Z,14.36
2016-06-02T03:16:03.544Z,14.38
2016-06-02T03:17:03.703Z,14.37
2016-06-02T03:18:03.690Z,14.38
2016-06-02T03:19:03.708Z,14.4
2016-06-02T03:20:03.554Z,14.4
2016-06-02T03:21:03.714Z,14.43
2016-06-02T03:22:03.717Z,14.37
2016-06-02T03:23:03.703Z,14.34
2016-06-02T03:24:03.706Z,14.34
2016-06-02T03:25:03.850Z,14.36
2016-06-02T03:26:03.711Z,14.33
2016-06-02T03:27:03.730Z,14.34
2016-06-02T03:28:03.701Z,14.41
2016-06-02T03:29:03.760Z,14.48
2016-06-02T03:30:03.788Z,14.36
2016-06-02T03:31:03.784Z,14.36
2016-06-02T03:32:03.812Z,14.38
2016-06-02T03:33:03.840Z,14.37
2016-06-02T03:34:03.852Z,14.41
2016-06-02T03:35:03.865Z,14.38
2016-06-02T03:36:03.862Z,14.4
2016-06-02T03:37:03.888Z,14.37
2016-06-02T03:38:03.729Z,14.41
2016-06-02T03:39:03.736Z,14.43
2016-06-02T03:40:04.991Z,14.36
2016-06-02T03:41:03.903Z,14.4
2016-06-02T03:42:03.924Z,14.4
2016-06-02T03:43:03.914Z,14.37
2016-06-02T03:44:03.902Z,14.38
2016-06-02T03:45:03.906Z,14.4
2016-06-02T03:46:03.910Z,14.37
2016-06-02T03:47:03.913Z,14.4
2016-06-02T03:48:03.918Z,14.34
2016-06-02T03:49:03.921Z,14.4
2016-06-02T03:50:03.924Z,14.41
2016-06-02T03:51:03.771Z,14.37
2016-06-02T03:52:03.915Z,14.37
2016-06-02T03:53:03.918Z,14.41
2016-06-02T03:54:03.936Z,14.38
2016-06-02T03:55:04.033Z,14.36
2016-06-02T03:56:03.927Z,14.36
2016-06-02T03:57:03.790Z,14.3
2016-06-02T03:58:03.918Z,14.4
2016-06-02T03:59:03.951Z,14.33
2016-06-02T04:00:03.923Z,14.36
2016-06-02T04:01:03.925Z,14.38
2016-06-02T04:02:03.929Z,14.37
2016-06-02T04:03:03.962Z,14.36
2016-06-02T04:04:03.934Z,14.3
2016-06-02T04:05:03.920Z,14.37
2016-06-02T04:06:03.939Z,14.33
2016-06-02T04:07:03.942Z,14.38
2016-06-02T04:08:03.961Z,14.38
2016-06-02T04:09:03.931Z,14.31
2016-06-02T04:10:04.466Z,14.37
2016-06-02T04:11:03.921Z,14.34
2016-06-02T04:12:03.939Z,14.31
2016-06-02T04:13:03.941Z,14.31
2016-06-02T04:14:03.944Z,14.31
2016-06-02T04:15:03.791Z,14.28
2016-06-02T04:16:03.950Z,14.31
2016-06-02T04:17:03.780Z,14.37
2016-06-02T04:18:03.940Z,14.33
2016-06-02T04:19:03.943Z,14.4
2016-06-02T04:20:03.945Z,14.36
2016-06-02T04:21:03.948Z,14.37
2016-06-02T04:22:03.951Z,14.38
2016-06-02T04:23:03.938Z,14.38
2016-06-02T04:24:03.940Z,14.37
2016-06-02T04:25:05.021Z,14.44
2016-06-02T04:26:04.024Z,14.43
2016-06-02T04:27:03.948Z,14.34
2016-06-02T04:28:03.951Z,14.37
2016-06-02T04:29:03.954Z,14.41
2016-06-02T04:30:03.957Z,14.43
2016-06-02T04:31:03.960Z,14.48
2016-06-02T04:32:03.946Z,14.44
2016-06-02T04:33:03.948Z,14.48
2016-06-02T04:34:03.951Z,14.58
2016-06-02T04:35:03.954Z,14.56
2016-06-02T04:36:03.956Z,14.53
2016-06-02T04:37:03.959Z,14.61
2016-06-02T04:38:03.947Z,14.66
2016-06-02T04:39:03.950Z,14.73
2016-06-02T04:40:04.577Z,14.71
2016-06-02T04:41:03.908Z,14.71
2016-06-02T04:42:03.989Z,14.81
2016-06-02T04:43:03.961Z,14.79
2016-06-02T04:44:03.963Z,14.86
2016-06-02T04:45:03.825Z,14.82
2016-06-02T04:46:03.655Z,14.87
2016-06-02T04:47:03.972Z,14.86
2016-06-02T04:48:03.958Z,14.94
2016-06-02T04:49:03.961Z,14.92
2016-06-02T04:50:03.963Z,14.9
2016-06-02T04:51:03.966Z,14.92
2016-06-02T04:52:03.968Z,14.97
2016-06-02T04:53:03.815Z,14.97
2016-06-02T04:54:03.818Z,14.94
2016-06-02T04:55:03.993Z,14.99
2016-06-02T04:56:03.979Z,14.9
2016-06-02T04:57:03.967Z,14.9
2016-06-02T04:58:03.970Z,15
2016-06-02T04:59:03.972Z,14.93
2016-06-02T05:00:03.990Z,14.99
2016-06-02T05:01:03.978Z,15
2016-06-02T05:02:03.981Z,14.94
2016-06-02T05:03:03.968Z,14.9
2016-06-02T05:04:03.970Z,14.93
2016-06-02T05:05:03.973Z,14.99
2016-06-02T05:06:03.975Z,14.96
2016-06-02T05:07:03.822Z,14.99
2016-06-02T05:08:03.980Z,14.99
2016-06-02T05:09:03.827Z,15.04
2016-06-02T05:10:04.689Z,14.93
2016-06-02T05:11:03.973Z,14.96
2016-06-02T05:12:03.975Z,15.04
2016-06-02T05:13:03.994Z,14.94
2016-06-02T05:14:03.981Z,14.97
2016-06-02T05:15:03.984Z,14.96
2016-06-02T05:16:03.986Z,15.02
2016-06-02T05:17:03.989Z,14.96
2016-06-02T05:18:03.679Z,14.92
2016-06-02T05:19:03.980Z,14.97
2016-06-02T05:20:03.982Z,15.08
2016-06-02T05:21:03.984Z,15.02
2016-06-02T05:22:04.003Z,15.11
2016-06-02T05:23:03.990Z,15.18
2016-06-02T05:24:03.836Z,15.11
2016-06-02T05:25:04.338Z,15.23
2016-06-02T05:26:04.435Z,15.18
2016-06-02T05:27:04.001Z,15.25
2016-06-02T05:28:04.004Z,15.26
2016-06-02T05:29:04.006Z,15.29
2016-06-02T05:30:03.993Z,15.36
2016-06-02T05:31:03.855Z,15.43
2016-06-02T05:32:03.998Z,15.47
2016-06-02T05:33:04.001Z,15.54
2016-06-02T05:34:04.004Z,15.6
2016-06-02T05:35:04.007Z,15.62
2016-06-02T05:36:03.993Z,15.66
2016-06-02T05:37:04.012Z,15.75
2016-06-02T05:38:04.015Z,15.84
2016-06-02T05:39:04.001Z,15.85
2016-06-02T05:40:03.848Z,15.85
2016-06-02T05:41:04.007Z,16.03
2016-06-02T05:42:04.025Z,16
2016-06-02T05:43:03.997Z,16.08
2016-06-02T05:44:03.999Z,16.06
2016-06-02T05:45:04.017Z,16.1
2016-06-02T05:46:04.004Z,16.1
2016-06-02T05:47:04.008Z,16.26
2016-06-02T05:48:04.010Z,16.24
2016-06-02T05:49:03.997Z,16.24
2016-06-02T05:50:04.016Z,16.32
2016-06-02T05:51:04.033Z,16.32
2016-06-02T05:52:04.021Z,16.32
2016-06-02T05:53:03.851Z,16.41
2016-06-02T05:54:03.871Z,16.44
2016-06-02T05:55:04.294Z,16.44
2016-06-02T05:56:04.610Z,16.51
2016-06-02T05:57:04.018Z,16.54
2016-06-02T05:58:04.021Z,16.57
2016-06-02T05:59:04.024Z,16.61
2016-06-02T06:00:03.871Z,16.61
2016-06-02T06:01:04.029Z,16.65
2016-06-02T06:02:03.876Z,16.65
2016-06-02T06:03:04.020Z,16.58
2016-06-02T06:04:04.022Z,16.61
2016-06-02T06:05:04.025Z,16.59
2016-06-02T06:06:03.870Z,16.58
2016-06-02T06:07:04.171Z,16.55
2016-06-02T06:08:04.033Z,16.5
2016-06-02T06:09:04.020Z,16.57
2016-06-02T06:10:03.882Z,16.5
2016-06-02T06:11:04.025Z,16.58
2016-06-02T06:12:04.044Z,16.5
2016-06-02T06:13:04.031Z,16.51
2016-06-02T06:14:03.877Z,16.55
2016-06-02T06:15:03.895Z,16.54
2016-06-02T06:16:03.883Z,16.57
2016-06-02T06:17:04.041Z,16.55
2016-06-02T06:18:04.060Z,16.49
2016-06-02T06:19:04.047Z,16.51
2016-06-02T06:20:04.050Z,16.58
2016-06-02T06:21:04.053Z,16.54
2016-06-02T06:22:04.038Z,16.57
2016-06-02T06:23:04.058Z,16.55
2016-06-02T06:24:04.045Z,16.62
2016-06-02T06:25:04.188Z,16.61
2016-06-02T06:26:04.050Z,16.59
2016-06-02T06:27:04.085Z,16.64
2016-06-02T06:28:04.055Z,16.55
2016-06-02T06:29:03.902Z,16.55
2016-06-02T06:30:04.061Z,16.57
2016-06-02T06:31:04.048Z,16.59
2016-06-02T06:32:04.051Z,16.55
2016-06-02T06:33:04.054Z,16.62
2016-06-02T06:34:04.071Z,16.64
2016-06-02T06:35:04.059Z,16.59
2016-06-02T06:36:04.062Z,16.64
2016-06-02T06:37:03.908Z,16.76
2016-06-02T06:38:04.067Z,16.72
2016-06-02T06:39:03.929Z,16.8
2016-06-02T06:40:04.744Z,16.82
2016-06-02T06:41:04.075Z,16.74
2016-06-02T06:42:04.078Z,16.83
2016-06-02T06:43:04.080Z,16.89
2016-06-02T06:44:04.067Z,17.05
2016-06-02T06:45:04.085Z,17.14
2016-06-02T06:46:04.073Z,17.1
2016-06-02T06:47:04.075Z,17.28
2016-06-02T06:48:04.094Z,17.32
2016-06-02T06:49:03.924Z,17.38
2016-06-02T06:50:04.083Z,17.44
2016-06-02T06:51:04.086Z,17.52
2016-06-02T06:52:04.072Z,17.69
2016-06-02T06:53:04.091Z,17.69
2016-06-02T06:54:04.094Z,17.86
2016-06-02T06:55:04.785Z,18.03
2016-06-02T06:56:04.115Z,18.08
2016-06-02T06:57:04.086Z,18.28
2016-06-02T06:58:04.088Z,18.6
2016-06-02T06:59:04.091Z,18.66
2016-06-02T07:00:04.094Z,18.96
2016-06-02T07:01:03.941Z,19.01
2016-06-02T07:02:04.099Z,19.07
2016-06-02T07:03:03.946Z,19.04
2016-06-02T07:04:04.105Z,19.01
2016-06-02T07:05:04.107Z,18.94
2016-06-02T07:06:03.939Z,18.94
2016-06-02T07:07:04.097Z,18.98
2016-06-02T07:08:04.115Z,18.86
2016-06-02T07:09:04.118Z,18.81
2016-06-02T07:10:04.653Z,18.78
2016-06-02T07:11:04.108Z,18.83
2016-06-02T07:12:04.112Z,18.81
2016-06-02T07:13:04.114Z,18.82
2016-06-02T07:14:03.960Z,18.79
2016-06-02T07:15:04.120Z,18.83
2016-06-02T07:16:04.106Z,18.94
2016-06-02T07:17:04.125Z,18.88
2016-06-02T07:18:04.112Z,18.94
2016-06-02T07:19:03.975Z,18.94
2016-06-02T07:20:04.132Z,18.92
2016-06-02T07:21:04.120Z,18.91
2016-06-02T07:22:04.123Z,18.85
2016-06-02T07:23:04.125Z,18.66
2016-06-02T07:24:04.144Z,18.7
2016-06-02T07:25:05.459Z,18.6
2016-06-02T07:26:03.993Z,18.41
2016-06-02T07:27:04.136Z,18.36
2016-06-02T07:28:03.983Z,18.28
2016-06-02T07:29:04.001Z,18.27
2016-06-02T07:30:04.144Z,18.21
2016-06-02T07:31:04.132Z,18.24
2016-06-02T07:32:04.134Z,18.15
2016-06-02T07:33:04.152Z,18.15
2016-06-02T07:34:04.140Z,18.12
2016-06-02T07:35:04.143Z,18.12
2016-06-02T07:36:04.301Z,18.11
2016-06-02T07:37:04.148Z,18.16
2016-06-02T07:38:04.150Z,18.19
2016-06-02T07:39:04.153Z,18.15
2016-06-02T07:40:04.531Z,18.11
2016-06-02T07:41:04.002Z,18.03
2016-06-02T07:42:04.161Z,18.05
2016-06-02T07:43:04.164Z,17.94
2016-06-02T07:44:04.197Z,18.02
2016-06-02T07:45:04.153Z,17.97
2016-06-02T07:46:04.172Z,18.03
2016-06-02T07:47:04.159Z,17.93
2016-06-02T07:48:04.178Z,17.8
2016-06-02T07:49:04.039Z,17.69
2016-06-02T07:50:04.198Z,17.65
2016-06-02T07:51:04.169Z,17.49
2016-06-02T07:52:04.203Z,17.41
2016-06-02T07:53:04.175Z,17.34
2016-06-02T07:54:04.194Z,17.39
2016-06-02T07:55:04.602Z,17.38
2016-06-02T07:56:04.027Z,17.28
2016-06-02T07:57:04.185Z,17.24
2016-06-02T07:58:04.219Z,17.19
2016-06-02T07:59:04.035Z,17.07
2016-06-02T08:00:04.022Z,17.16
2016-06-02T08:01:04.181Z,17.14
2016-06-02T08:02:04.183Z,17.14
2016-06-02T08:03:04.185Z,17.16
2016-06-02T08:04:04.188Z,17.28
2016-06-02T08:05:04.191Z,17.3
2016-06-02T08:06:04.193Z,17.44
2016-06-02T08:07:04.244Z,17.69
2016-06-02T08:08:04.184Z,17.98
2016-06-02T08:09:04.201Z,18.23
2016-06-02T08:10:04.205Z,18.63
2016-06-02T08:11:04.192Z,19.22
2016-06-02T08:12:04.225Z,19.82
2016-06-02T08:13:04.198Z,20.42
2016-06-02T08:14:04.231Z,21.37
2016-06-02T08:15:04.077Z,22.19
2016-06-02T08:16:04.205Z,23.1
2016-06-02T08:17:04.223Z,23.79
2016-06-02T08:18:04.226Z,24.48
2016-06-02T08:19:04.228Z,25.11
2016-06-02T08:20:04.217Z,25.67
2016-06-02T08:21:04.078Z,26.08
2016-06-02T08:22:04.237Z,26.53
2016-06-02T08:23:04.067Z,26.85
2016-06-02T08:24:07.992Z,27.13
2016-06-02T08:25:03.964Z,27.4
2016-06-02T08:26:04.233Z,27.58
2016-06-02T08:27:04.250Z,27.57
2016-06-02T08:28:04.253Z,27.6
2016-06-02T08:29:04.240Z,27.4
2016-06-02T08:30:04.258Z,27.18
2016-06-02T08:31:04.277Z,26.85
2016-06-02T08:32:04.264Z,26.37
2016-06-02T08:33:04.266Z,25.96
2016-06-02T08:34:04.269Z,25.52
2016-06-02T08:35:04.272Z,25.14
2016-06-02T08:36:04.275Z,24.77
2016-06-02T08:37:04.277Z,24.25
2016-06-02T08:38:04.279Z,23.82
2016-06-02T08:39:04.282Z,23.54
2016-06-02T08:40:04.301Z,23.32
2016-06-02T08:41:04.287Z,23.02
2016-06-02T08:42:04.290Z,22.58
2016-06-02T08:43:04.293Z,22.22
2016-06-02T08:44:04.311Z,21.96
2016-06-02T08:45:04.314Z,21.91
2016-06-02T08:46:04.317Z,21.58
2016-06-02T08:47:04.304Z,21.38
2016-06-02T08:48:04.322Z,21.03
2016-06-02T08:49:04.325Z,20.75
2016-06-02T08:50:04.312Z,20.74
2016-06-02T08:51:04.330Z,20.78
2016-06-02T08:52:04.334Z,20.9
2016-06-02T08:53:04.320Z,20.93
2016-06-02T08:54:04.339Z,21.04
2016-06-02T08:55:04.185Z,21
2016-06-02T08:56:04.172Z,21.04
2016-06-02T08:57:04.362Z,20.98
2016-06-02T08:58:04.333Z,20.88
2016-06-02T08:59:04.336Z,20.71
2016-06-02T09:00:04.199Z,20.63
2016-06-02T09:01:04.358Z,20.55
2016-06-02T09:02:04.188Z,20.37
2016-06-02T09:03:04.363Z,20.37
2016-06-02T09:04:04.349Z,20.26
2016-06-02T09:05:04.353Z,20.18
2016-06-02T09:06:04.215Z,20.18
2016-06-02T09:07:04.202Z,20.15
2016-06-02T09:08:04.377Z,20.08
2016-06-02T09:09:04.223Z,20.07
2016-06-02T09:10:04.413Z,19.93
2016-06-02T09:11:04.572Z,20
2016-06-02T09:12:04.387Z,19.92
2016-06-02T09:13:04.389Z,19.9
2016-06-02T09:14:04.079Z,19.79
2016-06-02T09:15:04.240Z,19.84
2016-06-02T09:16:04.382Z,19.82
2016-06-02T09:17:04.401Z,19.84
2016-06-02T09:18:04.247Z,19.82
2016-06-02T09:19:04.390Z,19.85
2016-06-02T09:20:04.409Z,19.71
2016-06-02T09:21:04.411Z,19.71
2016-06-02T09:22:04.415Z,19.72
2016-06-02T09:23:04.417Z,19.7
2016-06-02T09:24:04.404Z,19.7
2016-06-02T09:25:04.547Z,19.84
2016-06-02T09:26:04.424Z,19.71
2016-06-02T09:27:04.256Z,19.82
2016-06-02T09:28:04.415Z,19.67
2016-06-02T09:29:04.433Z,19.67
2016-06-02T09:30:04.420Z,19.84
2016-06-02T09:31:04.438Z,19.82
2016-06-02T09:32:04.285Z,19.78
2016-06-02T09:33:04.460Z,19.71
2016-06-02T09:34:04.446Z,19.71
2016-06-02T09:35:04.449Z,19.72
2016-06-02T09:36:04.452Z,19.71
2016-06-02T09:37:04.439Z,19.63
2016-06-02T09:38:04.457Z,19.6
2016-06-02T09:39:04.460Z,19.59
2016-06-02T09:40:04.571Z,19.6
2016-06-02T09:41:04.169Z,19.55
2016-06-02T09:42:04.468Z,19.44
2016-06-02T09:43:04.455Z,19.24
2016-06-02T09:44:04.473Z,19.12
2016-06-02T09:45:04.304Z,18.96
2016-06-02T09:46:04.462Z,18.82
2016-06-02T09:47:04.482Z,18.86
2016-06-02T09:48:04.484Z,18.82
2016-06-02T09:49:04.487Z,18.67
2016-06-02T09:50:04.474Z,18.66
2016-06-02T09:51:04.476Z,18.74
2016-06-02T09:52:04.479Z,18.68
2016-06-02T09:53:04.497Z,18.61
2016-06-02T09:54:04.501Z,18.58
2016-06-02T09:55:05.112Z,18.48
2016-06-02T09:56:04.350Z,18.52
2016-06-02T09:57:04.508Z,18.48
2016-06-02T09:58:04.511Z,18.52
2016-06-02T09:59:04.514Z,18.49
2016-06-02T10:00:04.767Z,18.48
2016-06-02T10:01:04.503Z,18.52
2016-06-02T10:02:04.506Z,18.52
2016-06-02T10:03:04.369Z,18.55
2016-06-02T10:04:04.511Z,18.58
2016-06-02T10:05:04.358Z,18.67
2016-06-02T10:06:04.517Z,18.71
2016-06-02T10:07:04.566Z,18.86
2016-06-02T10:08:04.522Z,18.89
2016-06-02T10:09:04.524Z,19.09
2016-06-02T10:10:05.044Z,19.19
2016-06-02T10:11:05.062Z,19.37
2016-06-02T10:12:04.376Z,19.48
2016-06-02T10:13:04.535Z,19.56
2016-06-02T10:14:04.554Z,19.78
2016-06-02T10:15:04.526Z,19.96
2016-06-02T10:16:04.543Z,20.21
2016-06-02T10:17:04.546Z,20.3
2016-06-02T10:18:04.548Z,20.49
2016-06-02T10:19:04.568Z,20.7
2016-06-02T10:20:04.554Z,20.93
2016-06-02T10:21:04.557Z,21.26
2016-06-02T10:22:04.576Z,21.7
2016-06-02T10:23:04.563Z,21.94
2016-06-02T10:24:04.565Z,22.18
2016-06-02T10:25:04.568Z,22.4
2016-06-02T10:26:04.789Z,22.53
2016-06-02T10:27:04.418Z,22.58
2016-06-02T10:28:04.263Z,22.58
2016-06-02T10:29:04.423Z,22.47
2016-06-02T10:30:04.581Z,22.65
2016-06-02T10:31:04.584Z,22.7
2016-06-02T10:32:04.430Z,22.74
2016-06-02T10:33:04.589Z,22.71
2016-06-02T10:34:04.452Z,22.71
2016-06-02T10:35:04.595Z,22.78
2016-06-02T10:36:04.644Z,22.78
2016-06-02T10:37:04.600Z,22.62
2016-06-02T10:38:04.603Z,22.41
2016-06-02T10:39:04.605Z,22.31
2016-06-02T10:40:04.827Z,22.31
2016-06-02T10:41:04.626Z,22.33
2016-06-02T10:42:04.645Z,22.43
2016-06-02T10:43:04.632Z,22.77
2016-06-02T10:44:04.635Z,22.76
2016-06-02T10:45:04.621Z,22.86
2016-06-02T10:46:04.624Z,22.99
2016-06-02T10:47:04.643Z,23.07
2016-06-02T10:48:04.646Z,23.14
2016-06-02T10:49:04.648Z,23.23
2016-06-02T10:50:04.651Z,23.37
2016-06-02T10:51:04.654Z,23.42
2016-06-02T10:52:04.907Z,23.33
2016-06-02T10:53:04.503Z,23.52
2016-06-02T10:54:04.662Z,23.64
2016-06-02T10:55:04.367Z,23.82
2016-06-02T10:56:05.026Z,23.95
2016-06-02T10:57:04.700Z,24.1
2016-06-02T10:58:04.532Z,24.28
2016-06-02T10:59:04.675Z,24.48
2016-06-02T11:00:04.678Z,24.61
2016-06-02T11:01:04.680Z,24.59
2016-06-02T11:02:04.699Z,24.62
2016-06-02T11:03:04.702Z,24.65
2016-06-02T11:04:04.736Z,24.62
2016-06-02T11:05:04.707Z,24.63
2016-06-02T11:06:04.694Z,24.77
2016-06-02T11:07:04.556Z,24.77
2016-06-02T11:08:04.716Z,24.85
2016-06-02T11:09:04.718Z,24.88
2016-06-02T11:10:05.438Z,24.97
2016-06-02T11:11:04.582Z,25.09
2016-06-02T11:12:04.726Z,25.19
2016-06-02T11:13:04.571Z,25.33
2016-06-02T11:14:04.575Z,25.48
2016-06-02T11:15:04.734Z,25.54
2016-06-02T11:16:04.752Z,25.56
2016-06-02T11:17:04.755Z,25.31
2016-06-02T11:18:04.758Z,25.29
2016-06-02T11:19:04.745Z,25.03
2016-06-02T11:20:04.747Z,24.78
2016-06-02T11:21:04.765Z,24.55
2016-06-02T11:22:04.596Z,24.31
2016-06-02T11:23:04.615Z,23.95
2016-06-02T11:24:04.773Z,23.71
2016-06-02T11:25:05.214Z,23.51
2016-06-02T11:26:04.778Z,23.21
2016-06-02T11:27:04.812Z,22.96
2016-06-02T11:28:04.784Z,22.76
2016-06-02T11:29:04.803Z,22.53
2016-06-02T11:30:04.634Z,22.36
2016-06-02T11:31:04.792Z,22.15
2016-06-02T11:32:04.794Z,22.03
2016-06-02T11:33:04.798Z,22.03
2016-06-02T11:34:04.800Z,21.99
2016-06-02T11:35:04.819Z,21.91
2016-06-02T11:36:04.806Z,21.88
2016-06-02T11:37:04.824Z,21.81
2016-06-02T11:38:04.811Z,21.75
2016-06-02T11:39:04.877Z,21.77
2016-06-02T11:40:05.160Z,21.8
2016-06-02T11:41:05.116Z,21.78
2016-06-02T11:42:04.663Z,21.88
2016-06-02T11:43:04.822Z,22.04
2016-06-02T11:44:04.983Z,22.16
2016-06-02T11:45:04.687Z,22.3
2016-06-02T11:46:04.830Z,22.52
2016-06-02T11:47:04.849Z,22.77
2016-06-02T11:48:04.851Z,23.02
2016-06-02T11:49:04.838Z,23.11
2016-06-02T11:50:04.840Z,23.23
2016-06-02T11:51:04.874Z,23.45
2016-06-02T11:52:04.877Z,23.66
2016-06-02T11:53:04.865Z,23.74
2016-06-02T11:54:04.852Z,23.96
2016-06-02T11:55:04.729Z,24.01
2016-06-02T11:56:04.717Z,24.1
2016-06-02T11:57:04.720Z,24.06
2016-06-02T11:58:04.722Z,24.13
2016-06-02T11:59:04.725Z,24.04
2016-06-02T12:00:04.727Z,24.07
2016-06-02T12:01:04.731Z,24
2016-06-02T12:02:04.889Z,23.99
2016-06-02T12:03:04.892Z,23.95
2016-06-02T12:04:04.894Z,23.99
2016-06-02T12:05:04.741Z,24.04
2016-06-02T12:06:04.899Z,24.25
2016-06-02T12:07:04.949Z,24.37
2016-06-02T12:08:04.905Z,24.58
2016-06-02T12:09:04.908Z,24.74
2016-06-02T12:10:05.317Z,24.99
2016-06-02T12:11:04.913Z,25.19
2016-06-02T12:12:04.915Z,25.37
2016-06-02T12:13:04.919Z,25.44
2016-06-02T12:14:04.921Z,25.58
2016-06-02T12:15:04.783Z,25.67
2016-06-02T12:16:04.942Z,25.88
2016-06-02T12:17:04.944Z,26.13
2016-06-02T12:18:04.791Z,26.04
2016-06-02T12:19:04.934Z,26.18
2016-06-02T12:20:04.952Z,26.27
2016-06-02T12:21:04.799Z,26.44
2016-06-02T12:22:04.943Z,26.6
2016-06-02T12:23:04.960Z,26.52
2016-06-02T12:24:04.963Z,26.53
2016-06-02T12:25:04.826Z,26.6
2016-06-02T12:26:04.954Z,26.63
2016-06-02T12:27:04.987Z,26.63
2016-06-02T12:28:04.974Z,26.52
2016-06-02T12:29:04.977Z,26.42
2016-06-02T12:30:04.979Z,26.18
2016-06-02T12:31:04.982Z,26.01
2016-06-02T12:32:04.984Z,25.74
2016-06-02T12:33:05.004Z,25.49
2016-06-02T12:34:05.022Z,25.31
2016-06-02T12:35:05.034Z,25.06
2016-06-02T12:36:05.065Z,24.78
2016-06-02T12:37:05.079Z,24.68
2016-06-02T12:38:05.109Z,24.51
2016-06-02T12:39:04.968Z,24.56
2016-06-02T12:40:05.180Z,24.51
2016-06-02T12:41:05.410Z,24.5
2016-06-02T12:42:05.189Z,24.58
2016-06-02T12:43:05.202Z,24.51
2016-06-02T12:44:05.231Z,24.61
2016-06-02T12:45:05.225Z,24.55
2016-06-02T12:46:05.231Z,24.63
2016-06-02T12:47:05.238Z,24.82
2016-06-02T12:48:05.243Z,24.68
2016-06-02T12:49:05.249Z,24.65
2016-06-02T12:50:05.255Z,24.59
2016-06-02T12:51:05.275Z,24.51
2016-06-02T12:52:05.121Z,24.65
2016-06-02T12:53:05.125Z,24.62
2016-06-02T12:54:05.114Z,24.5
2016-06-02T12:55:05.305Z,24.5